sensor_id;sensor_type;location;lat;lon;timestamp;pressure;altitude;pressure_sealevel;temperature;humidity
78890;BME280;68279;48.964;14.502;2024-02-04T00:02:07;97626.09;;;6.28;92.72
78890;BME280;68279;48.964;14.502;2024-02-04T00:04:35;97631.41;;;6.28;93.23
78890;BME280;68279;48.964;14.502;2024-02-04T00:07:01;97620.19;;;6.54;91.45
78890;BME280;68279;48.964;14.502;2024-02-04T00:09:26;97621.78;;;6.38;92.49
78890;BME280;68279;48.964;14.502;2024-02-04T00:11:54;97613.19;;;6.19;93.88
78890;BME280;68279;48.964;14.502;2024-02-04T00:14:19;97605.41;;;6.01;95.95
78890;BME280;68279;48.964;14.502;2024-02-04T00:16:45;97608.44;;;6.21;94.80
78890;BME280;68279;48.964;14.502;2024-02-04T00:19:11;97595.16;;;6.21;95.97
78890;BME280;68279;48.964;14.502;2024-02-04T00:21:36;97594.63;;;6.08;97.73
78890;BME280;68279;48.964;14.502;2024-02-04T00:24:02;97598.44;;;6.12;98.03
78890;BME280;68279;48.964;14.502;2024-02-04T00:26:27;97600.19;;;6.06;98.92
78890;BME280;68279;48.964;14.502;2024-02-04T00:28:53;97591.53;;;5.99;100.00
78890;BME280;68279;48.964;14.502;2024-02-04T00:31:19;97597.63;;;6.11;99.48
78890;BME280;68279;48.964;14.502;2024-02-04T00:33:44;97593.56;;;5.92;100.00
78890;BME280;68279;48.964;14.502;2024-02-04T00:36:10;97600.31;;;6.00;100.00
78890;BME280;68279;48.964;14.502;2024-02-04T00:38:35;97602.41;;;5.97;100.00
78890;BME280;68279;48.964;14.502;2024-02-04T00:41:01;97613.03;;;5.97;100.00
78890;BME280;68279;48.964;14.502;2024-02-04T00:43:27;97613.28;;;5.96;100.00
78890;BME280;68279;48.964;14.502;2024-02-04T00:45:52;97612.00;;;5.87;100.00
78890;BME280;68279;48.964;14.502;2024-02-04T00:48:21;97624.09;;;5.83;100.00
78890;BME280;68279;48.964;14.502;2024-02-04T00:50:47;97623.22;;;5.77;100.00
78890;BME280;68279;48.964;14.502;2024-02-04T00:53:13;97624.94;;;5.83;100.00
78890;BME280;68279;48.964;14.502;2024-02-04T00:55:38;97624.25;;;5.76;100.00
78890;BME280;68279;48.964;14.502;2024-02-04T00:58:04;97620.09;;;5.92;100.00
78890;BME280;68279;48.964;14.502;2024-02-04T01:00:30;97621.94;;;5.80;100.00
78890;BME280;68279;48.964;14.502;2024-02-04T01:02:55;97613.31;;;5.61;100.00
78890;BME280;68279;48.964;14.502;2024-02-04T01:05:21;97615.50;;;5.64;100.00
78890;BME280;68279;48.964;14.502;2024-02-04T01:07:47;97611.59;;;5.55;100.00
78890;BME280;68279;48.964;14.502;2024-02-04T01:10:12;97616.66;;;5.56;100.00
78890;BME280;68279;48.964;14.502;2024-02-04T01:12:37;97595.00;;;5.48;100.00
78890;BME280;68279;48.964;14.502;2024-02-04T01:15:03;97596.88;;;5.35;100.00
78890;BME280;68279;48.964;14.502;2024-02-04T01:17:30;97604.13;;;5.28;100.00
78890;BME280;68279;48.964;14.502;2024-02-04T01:19:56;97595.38;;;5.28;100.00
78890;BME280;68279;48.964;14.502;2024-02-04T01:22:22;97592.38;;;5.36;100.00
78890;BME280;68279;48.964;14.502;2024-02-04T01:24:51;97594.56;;;5.39;100.00
78890;BME280;68279;48.964;14.502;2024-02-04T01:27:17;97592.56;;;5.46;100.00
78890;BME280;68279;48.964;14.502;2024-02-04T01:29:43;97584.19;;;5.49;100.00
78890;BME280;68279;48.964;14.502;2024-02-04T01:32:08;97590.97;;;5.57;100.00
78890;BME280;68279;48.964;14.502;2024-02-04T01:34:34;97588.31;;;5.57;100.00
78890;BME280;68279;48.964;14.502;2024-02-04T01:36:59;97582.41;;;5.55;100.00
78890;BME280;68279;48.964;14.502;2024-02-04T01:39:25;97585.91;;;5.44;100.00
78890;BME280;68279;48.964;14.502;2024-02-04T01:41:51;97587.63;;;5.50;100.00
78890;BME280;68279;48.964;14.502;2024-02-04T01:44:16;97592.78;;;5.68;100.00
78890;BME280;68279;48.964;14.502;2024-02-04T01:46:43;97578.34;;;5.76;100.00
78890;BME280;68279;48.964;14.502;2024-02-04T01:49:10;97576.91;;;5.45;100.00
78890;BME280;68279;48.964;14.502;2024-02-04T01:51:35;97576.00;;;5.39;100.00
78890;BME280;68279;48.964;14.502;2024-02-04T01:54:01;97583.25;;;5.44;100.00
78890;BME280;68279;48.964;14.502;2024-02-04T01:56:29;97566.66;;;5.48;100.00
78890;BME280;68279;48.964;14.502;2024-02-04T01:58:55;97569.38;;;5.53;100.00
78890;BME280;68279;48.964;14.502;2024-02-04T02:01:22;97578.03;;;5.60;100.00
78890;BME280;68279;48.964;14.502;2024-02-04T02:03:48;97568.09;;;5.56;100.00
78890;BME280;68279;48.964;14.502;2024-02-04T02:06:15;97575.06;;;5.45;100.00
78890;BME280;68279;48.964;14.502;2024-02-04T02:08:41;97576.66;;;5.58;100.00
78890;BME280;68279;48.964;14.502;2024-02-04T02:11:21;97578.78;;;5.73;100.00
78890;BME280;68279;48.964;14.502;2024-02-04T02:13:53;97581.50;;;5.61;100.00
78890;BME280;68279;48.964;14.502;2024-02-04T02:16:23;97583.03;;;5.85;100.00
78890;BME280;68279;48.964;14.502;2024-02-04T02:18:57;97587.63;;;5.90;100.00
78890;BME280;68279;48.964;14.502;2024-02-04T02:21:50;97573.78;;;5.88;100.00
78890;BME280;68279;48.964;14.502;2024-02-04T02:26:52;97569.22;;;5.72;100.00
78890;BME280;68279;48.964;14.502;2024-02-04T02:29:18;97579.00;;;5.83;100.00
78890;BME280;68279;48.964;14.502;2024-02-04T02:31:44;97577.63;;;5.80;100.00
78890;BME280;68279;48.964;14.502;2024-02-04T02:34:10;97572.06;;;5.82;100.00
78890;BME280;68279;48.964;14.502;2024-02-04T02:36:52;97572.56;;;5.79;100.00
78890;BME280;68279;48.964;14.502;2024-02-04T02:39:24;97559.16;;;5.85;100.00
78890;BME280;68279;48.964;14.502;2024-02-04T02:41:55;97546.44;;;5.59;100.00
78890;BME280;68279;48.964;14.502;2024-02-04T02:44:23;97539.72;;;5.56;100.00
78890;BME280;68279;48.964;14.502;2024-02-04T02:46:50;97542.97;;;5.47;100.00
78890;BME280;68279;48.964;14.502;2024-02-04T02:49:16;97554.81;;;5.67;100.00
78890;BME280;68279;48.964;14.502;2024-02-04T02:51:42;97549.03;;;5.71;100.00
78890;BME280;68279;48.964;14.502;2024-02-04T02:54:07;97553.59;;;5.87;100.00
78890;BME280;68279;48.964;14.502;2024-02-04T02:56:33;97554.75;;;5.91;100.00
78890;BME280;68279;48.964;14.502;2024-02-04T02:58:58;97557.53;;;5.96;100.00
78890;BME280;68279;48.964;14.502;2024-02-04T03:01:24;97553.00;;;5.96;100.00
78890;BME280;68279;48.964;14.502;2024-02-04T03:03:50;97544.94;;;5.91;100.00
78890;BME280;68279;48.964;14.502;2024-02-04T03:06:15;97547.56;;;6.03;99.63
78890;BME280;68279;48.964;14.502;2024-02-04T03:08:41;97552.50;;;6.11;98.89
78890;BME280;68279;48.964;14.502;2024-02-04T03:11:06;97548.56;;;6.14;98.64
78890;BME280;68279;48.964;14.502;2024-02-04T03:13:32;97547.19;;;6.11;98.80
78890;BME280;68279;48.964;14.502;2024-02-04T03:15:57;97544.84;;;6.15;98.32
78890;BME280;68279;48.964;14.502;2024-02-04T03:18:23;97554.66;;;6.14;98.23
78890;BME280;68279;48.964;14.502;2024-02-04T03:20:49;97543.88;;;6.04;98.96
78890;BME280;68279;48.964;14.502;2024-02-04T03:23:14;97546.75;;;6.03;99.16
78890;BME280;68279;48.964;14.502;2024-02-04T03:25:40;97552.75;;;6.10;99.06
78890;BME280;68279;48.964;14.502;2024-02-04T03:28:05;97549.47;;;6.19;98.68
78890;BME280;68279;48.964;14.502;2024-02-04T03:30:31;97557.25;;;6.26;98.25
78890;BME280;68279;48.964;14.502;2024-02-04T03:32:57;97562.91;;;6.30;97.87
78890;BME280;68279;48.964;14.502;2024-02-04T03:35:22;97564.84;;;6.34;97.23
78890;BME280;68279;48.964;14.502;2024-02-04T03:37:48;97564.84;;;6.34;97.08
78890;BME280;68279;48.964;14.502;2024-02-04T03:40:13;97561.06;;;6.30;97.34
78890;BME280;68279;48.964;14.502;2024-02-04T03:42:39;97569.69;;;6.37;96.94
78890;BME280;68279;48.964;14.502;2024-02-04T03:45:06;97572.41;;;6.42;96.33
78890;BME280;68279;48.964;14.502;2024-02-04T03:47:32;97566.84;;;6.44;96.05
78890;BME280;68279;48.964;14.502;2024-02-04T03:49:57;97567.25;;;6.36;96.49
78890;BME280;68279;48.964;14.502;2024-02-04T03:52:23;97563.75;;;6.47;95.54
78890;BME280;68279;48.964;14.502;2024-02-04T03:54:48;97577.34;;;6.50;95.24
78890;BME280;68279;48.964;14.502;2024-02-04T03:57:14;97578.22;;;6.39;95.88
78890;BME280;68279;48.964;14.502;2024-02-04T03:59:40;97587.31;;;6.43;95.67
78890;BME280;68279;48.964;14.502;2024-02-04T04:02:05;97591.56;;;6.44;95.38
78890;BME280;68279;48.964;14.502;2024-02-04T04:04:31;97594.97;;;6.40;95.74
78890;BME280;68279;48.964;14.502;2024-02-04T04:06:56;97594.09;;;6.51;94.99
78890;BME280;68279;48.964;14.502;2024-02-04T04:09:22;97599.88;;;6.48;95.12
78890;BME280;68279;48.964;14.502;2024-02-04T04:11:48;97607.50;;;6.44;95.33
78890;BME280;68279;48.964;14.502;2024-02-04T04:14:14;97604.63;;;6.46;94.72
78890;BME280;68279;48.964;14.502;2024-02-04T04:16:39;97609.56;;;6.54;94.08
78890;BME280;68279;48.964;14.502;2024-02-04T04:19:05;97610.50;;;6.48;94.42
78890;BME280;68279;48.964;14.502;2024-02-04T04:21:30;97607.28;;;6.46;94.74
78890;BME280;68279;48.964;14.502;2024-02-04T04:23:56;97612.19;;;6.37;95.43
78890;BME280;68279;48.964;14.502;2024-02-04T04:26:22;97612.44;;;6.52;94.25
78890;BME280;68279;48.964;14.502;2024-02-04T04:28:47;97613.03;;;6.55;94.32
78890;BME280;68279;48.964;14.502;2024-02-04T04:31:13;97608.34;;;6.45;94.56
78890;BME280;68279;48.964;14.502;2024-02-04T04:33:39;97601.22;;;6.34;95.55
78890;BME280;68279;48.964;14.502;2024-02-04T04:36:04;97600.97;;;6.35;95.88
78890;BME280;68279;48.964;14.502;2024-02-04T04:38:30;97609.16;;;6.45;94.96
78890;BME280;68279;48.964;14.502;2024-02-04T04:40:56;97604.25;;;6.54;94.57
78890;BME280;68279;48.964;14.502;2024-02-04T04:43:21;97596.88;;;6.44;95.17
78890;BME280;68279;48.964;14.502;2024-02-04T04:45:47;97591.00;;;6.42;95.23
78890;BME280;68279;48.964;14.502;2024-02-04T04:48:13;97594.97;;;6.40;95.32
78890;BME280;68279;48.964;14.502;2024-02-04T04:50:38;97600.69;;;6.48;94.93
78890;BME280;68279;48.964;14.502;2024-02-04T04:53:04;97598.09;;;6.53;94.61
78890;BME280;68279;48.964;14.502;2024-02-04T04:55:29;97596.44;;;6.47;94.99
78890;BME280;68279;48.964;14.502;2024-02-04T04:57:55;97598.75;;;6.61;94.44
78890;BME280;68279;48.964;14.502;2024-02-04T05:00:21;97589.81;;;6.50;94.97
78890;BME280;68279;48.964;14.502;2024-02-04T05:02:46;97587.22;;;6.38;95.71
78890;BME280;68279;48.964;14.502;2024-02-04T05:05:13;97585.63;;;6.37;95.51
78890;BME280;68279;48.964;14.502;2024-02-04T05:07:39;97582.34;;;6.47;94.97
78890;BME280;68279;48.964;14.502;2024-02-04T05:10:05;97572.66;;;6.41;95.47
78890;BME280;68279;48.964;14.502;2024-02-04T05:12:32;97570.31;;;6.44;95.04
78890;BME280;68279;48.964;14.502;2024-02-04T05:14:58;97572.50;;;6.47;94.82
78890;BME280;68279;48.964;14.502;2024-02-04T05:17:23;97570.16;;;6.51;94.32
78890;BME280;68279;48.964;14.502;2024-02-04T05:19:49;97570.56;;;6.43;94.35
78890;BME280;68279;48.964;14.502;2024-02-04T05:22:15;97572.91;;;6.56;93.88
78890;BME280;68279;48.964;14.502;2024-02-04T05:24:41;97566.53;;;6.40;94.37
78890;BME280;68279;48.964;14.502;2024-02-04T05:27:06;97578.06;;;6.46;94.37
78890;BME280;68279;48.964;14.502;2024-02-04T05:29:33;97572.66;;;6.41;94.22
78890;BME280;68279;48.964;14.502;2024-02-04T05:31:59;97572.47;;;6.31;94.70
78890;BME280;68279;48.964;14.502;2024-02-04T05:34:24;97564.09;;;6.22;94.69
78890;BME280;68279;48.964;14.502;2024-02-04T05:36:50;97570.06;;;6.29;95.13
78890;BME280;68279;48.964;14.502;2024-02-04T05:39:18;97570.53;;;6.26;95.54
78890;BME280;68279;48.964;14.502;2024-02-04T05:41:44;97580.31;;;6.37;94.71
78890;BME280;68279;48.964;14.502;2024-02-04T05:44:10;97580.94;;;6.28;95.33
78890;BME280;68279;48.964;14.502;2024-02-04T05:46:36;97575.00;;;6.37;94.73
78890;BME280;68279;48.964;14.502;2024-02-04T05:49:01;97562.09;;;6.29;94.67
78890;BME280;68279;48.964;14.502;2024-02-04T05:51:27;97576.25;;;6.35;94.34
78890;BME280;68279;48.964;14.502;2024-02-04T05:53:53;97566.94;;;6.32;94.37
78890;BME280;68279;48.964;14.502;2024-02-04T05:56:19;97560.00;;;6.31;94.35
78890;BME280;68279;48.964;14.502;2024-02-04T05:58:46;97568.28;;;6.35;94.20
78890;BME280;68279;48.964;14.502;2024-02-04T06:01:11;97573.97;;;6.10;95.88
78890;BME280;68279;48.964;14.502;2024-02-04T06:03:37;97564.91;;;5.94;96.92
78890;BME280;68279;48.964;14.502;2024-02-04T06:06:03;97575.22;;;5.79;98.93
78890;BME280;68279;48.964;14.502;2024-02-04T06:08:29;97572.44;;;5.74;99.34
78890;BME280;68279;48.964;14.502;2024-02-04T06:10:54;97566.56;;;5.72;100.00
78890;BME280;68279;48.964;14.502;2024-02-04T06:13:20;97574.13;;;5.91;98.26
78890;BME280;68279;48.964;14.502;2024-02-04T06:15:46;97564.09;;;5.82;98.68
78890;BME280;68279;48.964;14.502;2024-02-04T06:18:12;97563.91;;;5.83;98.42
78890;BME280;68279;48.964;14.502;2024-02-04T06:20:37;97559.66;;;5.71;99.00
78890;BME280;68279;48.964;14.502;2024-02-04T06:23:03;97556.69;;;5.55;99.42
78890;BME280;68279;48.964;14.502;2024-02-04T06:25:28;97560.38;;;5.66;98.74
78890;BME280;68279;48.964;14.502;2024-02-04T06:27:54;97556.09;;;5.65;98.61
78890;BME280;68279;48.964;14.502;2024-02-04T06:30:20;97551.63;;;5.54;98.30
78890;BME280;68279;48.964;14.502;2024-02-04T06:32:48;97545.56;;;5.42;98.67
78890;BME280;68279;48.964;14.502;2024-02-04T06:35:14;97548.09;;;5.36;98.41
78890;BME280;68279;48.964;14.502;2024-02-04T06:37:41;97549.84;;;5.31;99.17
78890;BME280;68279;48.964;14.502;2024-02-04T06:40:09;97559.91;;;5.05;99.45
78890;BME280;68279;48.964;14.502;2024-02-04T06:42:35;97543.41;;;4.92;100.00
78890;BME280;68279;48.964;14.502;2024-02-04T06:45:01;97539.84;;;4.74;100.00
78890;BME280;68279;48.964;14.502;2024-02-04T06:47:26;97547.31;;;4.66;100.00
78890;BME280;68279;48.964;14.502;2024-02-04T06:49:52;97546.19;;;4.73;100.00
78890;BME280;68279;48.964;14.502;2024-02-04T06:52:17;97543.41;;;4.92;100.00
78890;BME280;68279;48.964;14.502;2024-02-04T06:54:44;97557.81;;;4.84;99.47
78890;BME280;68279;48.964;14.502;2024-02-04T06:57:09;97559.53;;;5.25;98.42
78890;BME280;68279;48.964;14.502;2024-02-04T06:59:35;97558.66;;;5.60;97.01
78890;BME280;68279;48.964;14.502;2024-02-04T07:02:00;97560.94;;;5.56;96.31
78890;BME280;68279;48.964;14.502;2024-02-04T07:04:26;97570.75;;;5.67;95.81
78890;BME280;68279;48.964;14.502;2024-02-04T07:06:52;97569.34;;;5.77;95.77
78890;BME280;68279;48.964;14.502;2024-02-04T07:09:18;97580.09;;;6.10;93.88
78890;BME280;68279;48.964;14.502;2024-02-04T07:11:43;97576.09;;;6.24;93.11
78890;BME280;68279;48.964;14.502;2024-02-04T07:14:09;97584.91;;;6.59;91.03
78890;BME280;68279;48.964;14.502;2024-02-04T07:16:34;97591.34;;;6.79;90.25
78890;BME280;68279;48.964;14.502;2024-02-04T07:19:00;97580.81;;;7.01;89.13
78890;BME280;68279;48.964;14.502;2024-02-04T07:21:26;97578.44;;;7.05;88.63
78890;BME280;68279;48.964;14.502;2024-02-04T07:23:51;97584.28;;;6.85;89.45
78890;BME280;68279;48.964;14.502;2024-02-04T07:26:17;97584.38;;;6.90;89.77
78890;BME280;68279;48.964;14.502;2024-02-04T07:28:42;97589.34;;;7.03;88.75
78890;BME280;68279;48.964;14.502;2024-02-04T07:31:08;97584.91;;;7.09;88.43
78890;BME280;68279;48.964;14.502;2024-02-04T07:33:34;97576.53;;;7.17;87.68
78890;BME280;68279;48.964;14.502;2024-02-04T07:35:59;97578.13;;;7.18;87.83
78890;BME280;68279;48.964;14.502;2024-02-04T07:38:25;97583.88;;;7.32;86.52
78890;BME280;68279;48.964;14.502;2024-02-04T07:40:51;97580.91;;;7.28;86.45
78890;BME280;68279;48.964;14.502;2024-02-04T07:43:16;97584.69;;;7.32;86.46
78890;BME280;68279;48.964;14.502;2024-02-04T07:45:42;97579.75;;;7.41;85.41
78890;BME280;68279;48.964;14.502;2024-02-04T07:48:07;97580.63;;;7.47;85.17
78890;BME280;68279;48.964;14.502;2024-02-04T07:50:34;97563.69;;;7.53;84.71
78890;BME280;68279;48.964;14.502;2024-02-04T07:53:00;97558.03;;;7.49;85.62
78890;BME280;68279;48.964;14.502;2024-02-04T07:55:26;97559.97;;;7.54;85.03
78890;BME280;68279;48.964;14.502;2024-02-04T07:57:51;97561.50;;;7.50;84.89
78890;BME280;68279;48.964;14.502;2024-02-04T08:00:17;97557.44;;;7.64;84.20
78890;BME280;68279;48.964;14.502;2024-02-04T08:02:46;97567.09;;;7.70;83.34
78890;BME280;68279;48.964;14.502;2024-02-04T08:05:12;97560.53;;;7.78;83.12
78890;BME280;68279;48.964;14.502;2024-02-04T08:07:38;97565.16;;;7.87;81.90
78890;BME280;68279;48.964;14.502;2024-02-04T08:10:04;97569.19;;;7.90;80.55
78890;BME280;68279;48.964;14.502;2024-02-04T08:12:29;97564.59;;;7.85;81.49
78890;BME280;68279;48.964;14.502;2024-02-04T08:14:55;97572.03;;;7.83;81.75
78890;BME280;68279;48.964;14.502;2024-02-04T08:17:21;97547.00;;;7.84;81.06
78890;BME280;68279;48.964;14.502;2024-02-04T08:19:46;97558.47;;;7.85;81.26
78890;BME280;68279;48.964;14.502;2024-02-04T08:22:12;97552.16;;;7.91;80.77
78890;BME280;68279;48.964;14.502;2024-02-04T08:24:37;97557.78;;;7.94;80.37
78890;BME280;68279;48.964;14.502;2024-02-04T08:27:03;97554.63;;;7.98;80.53
78890;BME280;68279;48.964;14.502;2024-02-04T08:29:29;97549.59;;;8.01;80.22
78890;BME280;68279;48.964;14.502;2024-02-04T08:31:57;97536.28;;;8.01;80.68
78890;BME280;68279;48.964;14.502;2024-02-04T08:34:23;97535.53;;;8.06;79.73
78890;BME280;68279;48.964;14.502;2024-02-04T08:36:52;97548.63;;;8.12;79.57
78890;BME280;68279;48.964;14.502;2024-02-04T08:39:17;97545.22;;;8.17;79.35
78890;BME280;68279;48.964;14.502;2024-02-04T08:41:43;97541.25;;;8.19;79.60
78890;BME280;68279;48.964;14.502;2024-02-04T08:44:08;97546.56;;;8.19;79.41
78890;BME280;68279;48.964;14.502;2024-02-04T08:46:34;97541.78;;;8.21;79.37
78890;BME280;68279;48.964;14.502;2024-02-04T08:49:00;97545.88;;;8.29;78.48
78890;BME280;68279;48.964;14.502;2024-02-04T08:51:25;97551.78;;;8.31;79.44
78890;BME280;68279;48.964;14.502;2024-02-04T08:53:51;97548.09;;;8.37;79.07
78890;BME280;68279;48.964;14.502;2024-02-04T08:56:17;97531.09;;;8.43;79.90
78890;BME280;68279;48.964;14.502;2024-02-04T08:58:45;97538.13;;;8.55;78.02
78890;BME280;68279;48.964;14.502;2024-02-04T09:01:10;97539.19;;;8.54;78.14
78890;BME280;68279;48.964;14.502;2024-02-04T09:03:36;97534.13;;;8.52;77.61
78890;BME280;68279;48.964;14.502;2024-02-04T09:06:02;97531.25;;;8.59;78.21
78890;BME280;68279;48.964;14.502;2024-02-04T09:08:27;97529.66;;;8.63;79.66
78890;BME280;68279;48.964;14.502;2024-02-04T09:10:53;97515.59;;;8.72;77.87
78890;BME280;68279;48.964;14.502;2024-02-04T09:13:18;97508.78;;;8.87;77.89
78890;BME280;68279;48.964;14.502;2024-02-04T09:15:44;97504.81;;;8.94;76.21
78890;BME280;68279;48.964;14.502;2024-02-04T09:18:10;97508.47;;;8.83;76.81
78890;BME280;68279;48.964;14.502;2024-02-04T09:20:35;97523.44;;;8.89;77.50
78890;BME280;68279;48.964;14.502;2024-02-04T09:23:01;97544.03;;;8.94;76.84
78890;BME280;68279;48.964;14.502;2024-02-04T09:25:26;97531.38;;;8.79;76.14
78890;BME280;68279;48.964;14.502;2024-02-04T09:27:52;97522.03;;;8.76;74.88
78890;BME280;68279;48.964;14.502;2024-02-04T09:30:18;97516.91;;;8.70;75.49
78890;BME280;68279;48.964;14.502;2024-02-04T09:32:43;97504.19;;;8.77;75.33
78890;BME280;68279;48.964;14.502;2024-02-04T09:35:09;97517.84;;;8.91;75.65
78890;BME280;68279;48.964;14.502;2024-02-04T09:37:35;97532.09;;;9.01;74.05
78890;BME280;68279;48.964;14.502;2024-02-04T09:40:01;97528.78;;;8.89;73.84
78890;BME280;68279;48.964;14.502;2024-02-04T09:42:26;97562.91;;;8.87;74.60
78890;BME280;68279;48.964;14.502;2024-02-04T09:44:53;97549.94;;;9.01;74.10
78890;BME280;68279;48.964;14.502;2024-02-04T09:47:20;97546.41;;;8.90;73.76
78890;BME280;68279;48.964;14.502;2024-02-04T09:49:46;97514.66;;;8.89;73.75
78890;BME280;68279;48.964;14.502;2024-02-04T09:52:12;97527.56;;;9.02;74.14
78890;BME280;68279;48.964;14.502;2024-02-04T09:54:49;97528.59;;;9.01;73.64
78890;BME280;68279;48.964;14.502;2024-02-04T09:57:16;97548.25;;;8.90;74.45
78890;BME280;68279;48.964;14.502;2024-02-04T09:59:44;97545.38;;;8.96;75.48
78890;BME280;68279;48.964;14.502;2024-02-04T10:02:09;97547.47;;;8.89;74.86
78890;BME280;68279;48.964;14.502;2024-02-04T10:04:35;97551.19;;;8.88;74.88
78890;BME280;68279;48.964;14.502;2024-02-04T10:07:01;97549.53;;;8.82;75.52
78890;BME280;68279;48.964;14.502;2024-02-04T10:09:27;97549.03;;;8.85;74.69
78890;BME280;68279;48.964;14.502;2024-02-04T10:11:54;97544.00;;;8.89;76.13
78890;BME280;68279;48.964;14.502;2024-02-04T10:14:20;97553.78;;;8.78;75.47
78890;BME280;68279;48.964;14.502;2024-02-04T10:16:46;97543.19;;;8.88;76.70
78890;BME280;68279;48.964;14.502;2024-02-04T10:19:12;97539.97;;;8.86;75.39
78890;BME280;68279;48.964;14.502;2024-02-04T10:21:37;97541.59;;;8.87;75.77
78890;BME280;68279;48.964;14.502;2024-02-04T10:24:03;97537.56;;;8.85;76.32
78890;BME280;68279;48.964;14.502;2024-02-04T10:26:29;97543.41;;;8.82;76.50
78890;BME280;68279;48.964;14.502;2024-02-04T10:29:00;97547.19;;;8.91;76.48
78890;BME280;68279;48.964;14.502;2024-02-04T10:31:26;97526.16;;;8.94;77.10
78890;BME280;68279;48.964;14.502;2024-02-04T10:33:55;97553.09;;;8.93;75.96
78890;BME280;68279;48.964;14.502;2024-02-04T10:36:23;97535.72;;;8.85;75.65
78890;BME280;68279;48.964;14.502;2024-02-04T10:38:49;97524.03;;;8.96;76.19
78890;BME280;68279;48.964;14.502;2024-02-04T10:41:16;97530.88;;;9.24;74.77
78890;BME280;68279;48.964;14.502;2024-02-04T10:43:43;97507.81;;;9.08;74.76
78890;BME280;68279;48.964;14.502;2024-02-04T10:46:13;97503.06;;;9.15;75.05
78890;BME280;68279;48.964;14.502;2024-02-04T10:48:42;97495.84;;;9.11;75.50
78890;BME280;68279;48.964;14.502;2024-02-04T10:51:13;97484.06;;;9.01;74.91
78890;BME280;68279;48.964;14.502;2024-02-04T10:53:43;97470.19;;;9.09;76.37
78890;BME280;68279;48.964;14.502;2024-02-04T10:56:22;97477.47;;;9.19;75.42
78890;BME280;68279;48.964;14.502;2024-02-04T10:58:52;97482.56;;;9.21;75.63
78890;BME280;68279;48.964;14.502;2024-02-04T11:01:18;97479.63;;;9.22;75.04
78890;BME280;68279;48.964;14.502;2024-02-04T11:03:45;97478.81;;;9.22;75.48
78890;BME280;68279;48.964;14.502;2024-02-04T11:06:12;97467.63;;;9.25;75.28
78890;BME280;68279;48.964;14.502;2024-02-04T11:08:39;97458.25;;;9.17;74.64
78890;BME280;68279;48.964;14.502;2024-02-04T11:11:04;97466.06;;;9.34;74.16
78890;BME280;68279;48.964;14.502;2024-02-04T11:13:30;97450.88;;;9.40;75.12
78890;BME280;68279;48.964;14.502;2024-02-04T11:16:03;97459.34;;;9.21;76.58
78890;BME280;68279;48.964;14.502;2024-02-04T11:18:40;97441.13;;;9.03;77.05
78890;BME280;68279;48.964;14.502;2024-02-04T11:26:20;97443.72;;;8.93;77.93
78890;BME280;68279;48.964;14.502;2024-02-04T11:28:46;97461.06;;;8.95;78.57
78890;BME280;68279;48.964;14.502;2024-02-04T11:31:16;97455.69;;;8.85;78.61
78890;BME280;68279;48.964;14.502;2024-02-04T11:33:42;97465.56;;;8.90;78.66
78890;BME280;68279;48.964;14.502;2024-02-04T11:36:13;97459.44;;;8.89;78.96
78890;BME280;68279;48.964;14.502;2024-02-04T11:38:39;97469.03;;;8.90;79.28
78890;BME280;68279;48.964;14.502;2024-02-04T11:41:06;97464.22;;;8.87;79.18
78890;BME280;68279;48.964;14.502;2024-02-04T11:43:36;97460.28;;;8.95;78.93
78890;BME280;68279;48.964;14.502;2024-02-04T11:46:03;97462.69;;;8.96;79.43
78890;BME280;68279;48.964;14.502;2024-02-04T11:48:30;97456.41;;;8.70;80.23
78890;BME280;68279;48.964;14.502;2024-02-04T11:50:58;97463.84;;;8.68;80.69
78890;BME280;68279;48.964;14.502;2024-02-04T11:53:24;97467.31;;;8.69;80.98
78890;BME280;68279;48.964;14.502;2024-02-04T11:55:54;97462.19;;;8.57;81.29
78890;BME280;68279;48.964;14.502;2024-02-04T11:58:19;97464.25;;;8.50;81.67
78890;BME280;68279;48.964;14.502;2024-02-04T12:00:45;97463.47;;;8.49;82.26
78890;BME280;68279;48.964;14.502;2024-02-04T12:03:11;97462.28;;;8.35;82.99
78890;BME280;68279;48.964;14.502;2024-02-04T12:05:37;97444.75;;;8.44;82.37
78890;BME280;68279;48.964;14.502;2024-02-04T12:08:05;97448.75;;;8.42;82.20
78890;BME280;68279;48.964;14.502;2024-02-04T12:10:32;97438.88;;;8.42;82.72
78890;BME280;68279;48.964;14.502;2024-02-04T12:13:06;97426.38;;;8.48;82.52
78890;BME280;68279;48.964;14.502;2024-02-04T12:15:34;97417.84;;;8.46;82.69
78890;BME280;68279;48.964;14.502;2024-02-04T12:18:10;97418.38;;;8.43;82.91
78890;BME280;68279;48.964;14.502;2024-02-04T12:20:36;97408.81;;;8.52;83.16
78890;BME280;68279;48.964;14.502;2024-02-04T12:23:05;97406.38;;;8.40;83.15
78890;BME280;68279;48.964;14.502;2024-02-04T12:25:32;97418.38;;;8.43;82.78
78890;BME280;68279;48.964;14.502;2024-02-04T12:27:58;97406.63;;;8.44;83.15
78890;BME280;68279;48.964;14.502;2024-02-04T12:30:25;97401.59;;;8.47;83.34
78890;BME280;68279;48.964;14.502;2024-02-04T12:33:00;97394.44;;;8.53;82.02
78890;BME280;68279;48.964;14.502;2024-02-04T12:35:26;97385.38;;;8.54;82.70
78890;BME280;68279;48.964;14.502;2024-02-04T12:37:56;97385.91;;;8.51;82.61
78890;BME280;68279;48.964;14.502;2024-02-04T12:40:23;97379.72;;;8.45;82.09
78890;BME280;68279;48.964;14.502;2024-02-04T12:43:02;97364.84;;;8.55;81.85
78890;BME280;68279;48.964;14.502;2024-02-04T12:45:31;97374.72;;;8.54;81.48
78890;BME280;68279;48.964;14.502;2024-02-04T12:47:57;97360.38;;;8.65;81.64
78890;BME280;68279;48.964;14.502;2024-02-04T12:50:24;97366.25;;;8.67;81.40
78890;BME280;68279;48.964;14.502;2024-02-04T12:53:03;97362.50;;;8.63;81.44
78890;BME280;68279;48.964;14.502;2024-02-04T12:55:33;97367.50;;;8.55;80.95
78890;BME280;68279;48.964;14.502;2024-02-04T13:00:36;97372.59;;;8.56;81.14
78890;BME280;68279;48.964;14.502;2024-02-04T13:03:03;97353.66;;;8.52;81.39
78890;BME280;68279;48.964;14.502;2024-02-04T13:05:29;97354.72;;;8.51;81.34